To NAV CANADA Home Page Login to a new session Search on AWWS site Feedback and Comments Disclaimer Vers la page française équivalente Tips FAQ What's new on the site To the Forecasts and Observations / NOTAM section To "File a Flight Plan" website Publications and other links Update of the User's profile FIC Telephone Numbers My Weather Data Folder Route Weather Data Regional Weather Data Local Weather Data To the Forecasts and Observations / NOTAM section
Request Generated 12/10/2016 at 16:30:05 UTC . Weather information available at that time is displayed.

METAR/TAF

NAUJAAT/NU    

METAR CYUT 101600Z 34008KT 25SM FEW012 SCT200 M24/M28 A2969 RMK
SF1CI4 SF TR SLP060=
METAR CYUT 101500Z 34005KT 25SM FEW012 SCT200 M24/M28 A2970 RMK
SF1CI4 SF TR -18.6/-24.1/TR/ TR SNW CVR/TRACE LOOSE SLP064=
LWIS CYUT 101400Z AUTO 28006KT M22/M26 A2971=

*** REMARK        : Forecast period has ended; this was the last TAF issued
*** REMARQUE : La période de prévision est échue; ceci était le dernier TAF qui a été émis
TAF CYUT 091838Z 0919/0923 29008KT P6SM -SN OVC040 TEMPO 0919/0923
3SM -SN -SG BR OVC020
RMK NXT FCST WILL BE ISSUED AT 101645Z=
Your time UTC time
Weather data provided by Environment Canada and NAV CANADA